Time,TemperatureF,DewpointF,PressureIn,WindDirection,WindDirectionDegrees,WindSpeedMPH,WindSpeedGustMPH,Humidity,HourlyPrecipIn,Conditions,Clouds,dailyrainin,SoftwareType,DateUTC
2013-03-04 00:07:00,31.8,19.0,29.90,North,350,0.0,-999.0,59,-99.99,,,0.00,weatherlink.com 1.10,2013-03-04 05:07:00,
2013-03-04 00:22:00,31.3,19.0,29.90,North,350,0.0,-999.0,60,-99.99,,,0.00,weatherlink.com 1.10,2013-03-04 05:22:00,
2013-03-04 00:37:00,30.9,19.0,29.90,North,350,0.0,-999.0,61,-99.99,,,0.00,weatherlink.com 1.10,2013-03-04 05:37:00,
2013-03-04 00:52:00,30.5,19.0,29.90,North,350,0.0,-999.0,62,-99.99,,,0.00,weatherlink.com 1.10,2013-03-04 05:52:00,
2013-03-04 01:07:00,30.3,19.0,29.91,North,350,0.0,-999.0,62,-99.99,,,0.00,weatherlink.com 1.10,2013-03-04 06:07:00,
2013-03-04 01:22:00,30.1,18.0,29.91,North,351,0.0,-999.0,62,-99.99,,,0.00,weatherlink.com 1.10,2013-03-04 06:22:00,
2013-03-04 01:37:00,29.9,19.0,29.91,NNW,344,0.0,-999.0,63,-99.99,,,0.00,weatherlink.com 1.10,2013-03-04 06:37:00,
2013-03-04 01:52:00,29.7,18.0,29.91,NNW,344,0.0,-999.0,63,-99.99,,,0.00,weatherlink.com 1.10,2013-03-04 06:52:00,
2013-03-04 02:07:00,29.6,19.0,29.91,NNW,344,0.0,-999.0,64,-99.99,,,0.00,weatherlink.com 1.10,2013-03-04 07:07:00,
2013-03-04 02:22:00,29.6,19.0,29.91,NNW,344,0.0,-999.0,65,-99.99,,,0.00,weatherlink.com 1.10,2013-03-04 07:22:00,
2013-03-04 02:37:00,29.2,19.0,29.91,NNW,344,0.0,-999.0,65,-99.99,,,0.00,weatherlink.com 1.10,2013-03-04 07:37:00,
2013-03-04 02:52:00,29.2,19.0,29.91,West,281,0.0,-999.0,65,-99.99,,,0.00,weatherlink.com 1.10,2013-03-04 07:52:00,
2013-03-04 03:07:00,29.8,19.0,29.91,WSW,245,0.0,-999.0,64,-99.99,,,0.00,weatherlink.com 1.10,2013-03-04 08:07:00,
2013-03-04 03:22:00,30.0,19.0,29.91,WSW,252,0.0,-999.0,64,-99.99,,,0.00,weatherlink.com 1.10,2013-03-04 08:22:00,
2013-03-04 03:37:00,29.9,19.0,29.92,WNW,293,0.0,-999.0,63,-99.99,,,0.00,weatherlink.com 1.10,2013-03-04 08:37:00,
2013-03-04 03:52:00,29.7,18.0,29.92,WNW,302,0.0,-999.0,63,-99.99,,,0.00,weatherlink.com 1.10,2013-03-04 08:52:00,
2013-03-04 04:07:00,29.3,18.0,29.92,South,179,0.0,-999.0,64,-99.99,,,0.00,weatherlink.com 1.10,2013-03-04 09:07:00,
2013-03-04 04:22:00,29.4,18.0,29.93,WNW,282,0.0,-999.0,63,-99.99,,,0.00,weatherlink.com 1.10,2013-03-04 09:22:00,
2013-03-04 04:37:00,29.4,18.0,29.94,West,277,0.0,-999.0,63,-99.99,,,0.00,weatherlink.com 1.10,2013-03-04 09:37:00,
2013-03-04 04:52:00,29.0,18.0,29.94,West,277,0.0,-999.0,64,-99.99,,,0.00,weatherlink.com 1.10,2013-03-04 09:52:00,
2013-03-04 05:07:00,28.8,17.0,29.95,WSW,238,0.0,-999.0,62,-99.99,,,0.00,weatherlink.com 1.10,2013-03-04 10:07:00,
2013-03-04 05:22:00,28.8,16.0,29.95,South,182,1.0,-999.0,60,-99.99,,,0.00,weatherlink.com 1.10,2013-03-04 10:22:00,
2013-03-04 05:37:00,28.8,17.0,29.95,NNW,344,1.0,-999.0,61,-99.99,,,0.00,weatherlink.com 1.10,2013-03-04 10:37:00,
2013-03-04 05:52:00,28.6,17.0,29.96,NW,321,0.0,-999.0,61,-99.99,,,0.00,weatherlink.com 1.10,2013-03-04 10:52:00,
2013-03-04 06:07:00,28.4,16.0,29.96,North,355,0.0,-999.0,61,-99.99,,,0.00,weatherlink.com 1.10,2013-03-04 11:07:00,
2013-03-04 06:22:00,28.3,16.0,29.97,NNW,330,3.0,-999.0,61,-99.99,,,0.00,weatherlink.com 1.10,2013-03-04 11:22:00,
2013-03-04 06:37:00,28.3,16.0,29.97,SW,219,0.0,-999.0,61,-99.99,,,0.00,weatherlink.com 1.10,2013-03-04 11:37:00,
2013-03-04 06:52:00,27.9,16.0,29.98,NW,306,0.0,-999.0,62,-99.99,,,0.00,weatherlink.com 1.10,2013-03-04 11:52:00,
2013-03-04 07:07:00,28.1,16.0,29.99,NW,304,1.0,-999.0,61,-99.99,,,0.00,weatherlink.com 1.10,2013-03-04 12:07:00,
2013-03-04 07:22:00,28.4,16.0,30.00,WNW,293,2.0,-999.0,60,-99.99,,,0.00,weatherlink.com 1.10,2013-03-04 12:22:00,
2013-03-04 07:37:00,28.7,16.0,30.00,SSW,211,0.0,-999.0,59,-99.99,,,0.00,weatherlink.com 1.10,2013-03-04 12:37:00,
2013-03-04 07:52:00,29.4,16.0,30.00,WNW,290,0.0,-999.0,57,-99.99,,,0.00,weatherlink.com 1.10,2013-03-04 12:52:00,
2013-03-04 08:07:00,29.9,16.0,30.01,West,275,0.0,-999.0,56,-99.99,,,0.00,weatherlink.com 1.10,2013-03-04 13:07:00,
2013-03-04 08:22:00,30.6,16.0,30.02,WSW,246,1.0,-999.0,56,-99.99,,,0.00,weatherlink.com 1.10,2013-03-04 13:22:00,
2013-03-04 08:38:00,31.6,17.0,30.02,NE,43,2.0,-999.0,56,-99.99,,,0.00,weatherlink.com 1.10,2013-03-04 13:38:00,
2013-03-04 08:53:00,33.4,18.0,30.02,North,360,0.0,-999.0,54,-99.99,,,0.00,weatherlink.com 1.10,2013-03-04 13:53:00,
2013-03-04 09:08:00,34.8,17.0,30.02,WSW,250,0.0,-999.0,49,-99.99,,,0.00,weatherlink.com 1.10,2013-03-04 14:08:00,
2013-03-04 09:23:00,36.0,19.0,30.02,NNW,337,0.0,-999.0,51,-99.99,,,0.00,weatherlink.com 1.10,2013-03-04 14:23:00,
2013-03-04 09:38:00,37.2,18.0,30.01,North,360,0.0,-999.0,47,-99.99,,,0.00,weatherlink.com 1.10,2013-03-04 14:38:00,
2013-03-04 10:07:00,37.0,18.0,30.01,WNW,302,2.0,-999.0,47,-99.99,,,0.00,weatherlink.com 1.10,2013-03-04 15:07:00,
2013-03-04 10:22:00,37.9,18.0,30.01,West,265,0.0,-999.0,44,-99.99,,,0.00,weatherlink.com 1.10,2013-03-04 15:22:00,
2013-03-04 10:37:00,39.6,18.0,30.01,NNE,13,0.0,-999.0,42,-99.99,,,0.00,weatherlink.com 1.10,2013-03-04 15:37:00,
2013-03-04 10:52:00,39.7,16.0,30.00,SW,215,0.0,-999.0,39,-99.99,,,0.00,weatherlink.com 1.10,2013-03-04 15:52:00,
2013-03-04 11:07:00,40.4,16.0,30.01,West,279,5.0,-999.0,38,-99.99,,,0.00,weatherlink.com 1.10,2013-03-04 16:07:00,
2013-03-04 11:22:00,40.9,16.0,30.00,NNW,330,0.0,-999.0,37,-99.99,,,0.00,weatherlink.com 1.10,2013-03-04 16:22:00,
2013-03-04 11:37:00,41.9,18.0,30.00,South,188,0.0,-999.0,38,-99.99,,,0.00,weatherlink.com 1.10,2013-03-04 16:37:00,
2013-03-04 11:52:00,42.5,17.0,29.99,WSW,257,0.0,-999.0,36,-99.99,,,0.00,weatherlink.com 1.10,2013-03-04 16:52:00,
2013-03-04 12:07:00,43.9,18.0,29.99,NNW,337,6.0,-999.0,35,-99.99,,,0.00,weatherlink.com 1.10,2013-03-04 17:07:00,
2013-03-04 12:22:00,45.1,18.0,29.98,WSW,238,2.0,-999.0,34,-99.99,,,0.00,weatherlink.com 1.10,2013-03-04 17:22:00,
2013-03-04 12:37:00,45.7,18.0,29.98,West,259,4.0,-999.0,33,-99.99,,,0.00,weatherlink.com 1.10,2013-03-04 17:37:00,
2013-03-04 12:52:00,46.0,19.0,29.97,SSW,197,1.0,-999.0,34,-99.99,,,0.00,weatherlink.com 1.10,2013-03-04 17:52:00,
2013-03-04 13:07:00,46.9,18.0,29.96,WNW,294,1.0,-999.0,32,-99.99,,,0.00,weatherlink.com 1.10,2013-03-04 18:07:00,
2013-03-04 13:22:00,47.2,18.0,29.95,WNW,295,0.0,-999.0,31,-99.99,,,0.00,weatherlink.com 1.10,2013-03-04 18:22:00,
2013-03-04 13:37:00,47.9,20.0,29.95,SW,219,0.0,-999.0,33,-99.99,,,0.00,weatherlink.com 1.10,2013-03-04 18:37:00,
2013-03-04 13:52:00,49.0,19.0,29.94,SW,226,0.0,-999.0,31,-99.99,,,0.00,weatherlink.com 1.10,2013-03-04 18:52:00,
2013-03-04 14:07:00,48.9,17.0,29.94,West,271,4.0,-999.0,28,-99.99,,,0.00,weatherlink.com 1.10,2013-03-04 19:07:00,
2013-03-04 14:22:00,49.4,20.0,29.94,SSW,202,0.0,-999.0,31,-99.99,,,0.00,weatherlink.com 1.10,2013-03-04 19:22:00,
2013-03-04 14:37:00,50.8,21.0,29.93,North,9,0.0,-999.0,31,-99.99,,,0.00,weatherlink.com 1.10,2013-03-04 19:37:00,
2013-03-04 14:52:00,50.4,21.0,29.93,WNW,283,1.0,-999.0,32,-99.99,,,0.00,weatherlink.com 1.10,2013-03-04 19:52:00,
2013-03-04 15:07:00,50.7,18.0,29.93,WSW,256,2.0,-999.0,28,-99.99,,,0.00,weatherlink.com 1.10,2013-03-04 20:07:00,
2013-03-04 15:22:00,50.5,20.0,29.93,SSW,201,2.0,-999.0,30,-99.99,,,0.00,weatherlink.com 1.10,2013-03-04 20:22:00,
2013-03-04 15:37:00,51.0,20.0,29.93,NNW,337,1.0,-999.0,29,-99.99,,,0.00,weatherlink.com 1.10,2013-03-04 20:37:00,
2013-03-04 15:52:00,51.0,20.0,29.93,WNW,303,4.0,-999.0,29,-99.99,,,0.00,weatherlink.com 1.10,2013-03-04 20:52:00,
2013-03-04 16:07:00,50.5,18.0,29.93,SSW,204,4.0,-999.0,28,-99.99,,,0.00,weatherlink.com 1.10,2013-03-04 21:07:00,
2013-03-04 16:22:00,50.7,19.0,29.93,SSW,212,1.0,-999.0,29,-99.99,,,0.00,weatherlink.com 1.10,2013-03-04 21:22:00,
2013-03-04 16:38:00,50.7,19.0,29.93,WNW,284,2.0,-999.0,29,-99.99,,,0.00,weatherlink.com 1.10,2013-03-04 21:38:00,
2013-03-04 17:08:00,50.2,19.0,29.92,SSW,192,1.0,-999.0,29,-99.99,,,0.00,weatherlink.com 1.10,2013-03-04 22:08:00,
2013-03-04 17:23:00,49.2,17.0,29.93,SSW,202,3.0,-999.0,28,-99.99,,,0.00,weatherlink.com 1.10,2013-03-04 22:23:00,
2013-03-04 17:38:00,48.4,16.0,29.93,West,266,2.0,-999.0,27,-99.99,,,0.00,weatherlink.com 1.10,2013-03-04 22:38:00,
2013-03-04 17:53:00,47.8,16.0,29.94,West,262,3.0,-999.0,28,-99.99,,,0.00,weatherlink.com 1.10,2013-03-04 22:53:00,
2013-03-04 18:08:00,47.4,16.0,29.94,NW,324,0.0,-999.0,28,-99.99,,,0.00,weatherlink.com 1.10,2013-03-04 23:08:00,
2013-03-04 18:22:00,47.0,15.0,29.94,WNW,287,2.0,-999.0,28,-99.99,,,0.00,weatherlink.com 1.10,2013-03-04 23:22:00,
2013-03-04 18:37:00,46.3,15.0,29.95,WNW,284,1.0,-999.0,29,-99.99,,,0.00,weatherlink.com 1.10,2013-03-04 23:37:00,
2013-03-04 18:52:00,45.7,15.0,29.95,WSW,252,0.0,-999.0,29,-99.99,,,0.00,weatherlink.com 1.10,2013-03-04 23:52:00,
2013-03-04 19:07:00,45.2,15.0,29.96,WSW,250,0.0,-999.0,30,-99.99,,,0.00,weatherlink.com 1.10,2013-03-05 00:07:00,
2013-03-04 19:22:00,44.9,16.0,29.97,WSW,250,0.0,-999.0,31,-99.99,,,0.00,weatherlink.com 1.10,2013-03-05 00:22:00,
2013-03-04 19:37:00,44.2,15.0,29.96,WSW,250,0.0,-999.0,31,-99.99,,,0.00,weatherlink.com 1.10,2013-03-05 00:37:00,
2013-03-04 19:52:00,43.5,17.0,29.96,WSW,252,0.0,-999.0,34,-99.99,,,0.00,weatherlink.com 1.10,2013-03-05 00:52:00,
2013-03-04 20:07:00,42.4,18.0,29.97,WSW,252,0.0,-999.0,37,-99.99,,,0.00,weatherlink.com 1.10,2013-03-05 01:07:00,
2013-03-04 20:22:00,40.8,18.0,29.97,WSW,252,0.0,-999.0,40,-99.99,,,0.00,weatherlink.com 1.10,2013-03-05 01:22:00,
2013-03-04 20:37:00,39.5,17.0,29.98,WSW,252,0.0,-999.0,40,-99.99,,,0.00,weatherlink.com 1.10,2013-03-05 01:37:00,
2013-03-04 20:52:00,38.3,18.0,29.98,WSW,252,0.0,-999.0,44,-99.99,,,0.00,weatherlink.com 1.10,2013-03-05 01:52:00,
2013-03-04 21:07:00,37.4,18.0,29.99,WSW,252,0.0,-999.0,45,-99.99,,,0.00,weatherlink.com 1.10,2013-03-05 02:07:00,
2013-03-04 21:22:00,36.6,18.0,29.99,WSW,252,0.0,-999.0,48,-99.99,,,0.00,weatherlink.com 1.10,2013-03-05 02:22:00,
2013-03-04 21:37:00,36.5,19.0,29.99,WSW,252,0.0,-999.0,49,-99.99,,,0.00,weatherlink.com 1.10,2013-03-05 02:37:00,
2013-03-04 21:52:00,35.9,18.0,29.99,WSW,252,0.0,-999.0,49,-99.99,,,0.00,weatherlink.com 1.10,2013-03-05 02:52:00,
2013-03-04 22:07:00,35.2,17.0,30.00,WSW,252,0.0,-999.0,48,-99.99,,,0.00,weatherlink.com 1.10,2013-03-05 03:07:00,
2013-03-04 22:22:00,34.8,17.0,30.00,WSW,252,0.0,-999.0,48,-99.99,,,0.00,weatherlink.com 1.10,2013-03-05 03:22:00,
2013-03-04 22:37:00,34.8,17.0,30.01,WSW,252,0.0,-999.0,48,-99.99,,,0.00,weatherlink.com 1.10,2013-03-05 03:37:00,
2013-03-04 22:52:00,34.8,17.0,30.01,WSW,252,0.0,-999.0,48,-99.99,,,0.00,weatherlink.com 1.10,2013-03-05 03:52:00,
2013-03-04 23:07:00,35.1,18.0,30.02,WSW,252,0.0,-999.0,49,-99.99,,,0.00,weatherlink.com 1.10,2013-03-05 04:07:00,
2013-03-04 23:22:00,35.1,18.0,30.02,WSW,252,0.0,-999.0,51,-99.99,,,0.00,weatherlink.com 1.10,2013-03-05 04:22:00,
2013-03-04 23:37:00,34.3,19.0,30.02,WSW,252,0.0,-999.0,53,-99.99,,,0.00,weatherlink.com 1.10,2013-03-05 04:37:00,
2013-03-04 23:52:00,33.3,19.0,30.02,WSW,252,0.0,-999.0,56,-99.99,,,0.00,weatherlink.com 1.10,2013-03-05 04:52:00,